Time;durP1;ratioP1;P1;durP2;ratioP2;P2;SDS_P1;SDS_P2;PMS_P1;PMS_P2;Temp;Humidity;BMP_temperature;BMP_pressure;BME280_temperature;BME280_humidity;BME280_pressure;Samples;Min_cycle;Max_cycle;Signal;HPM_P1;HPM_P2
2023/07/13 08:57:18;;;;;;;17.13;5.38;;;;;;;18.06;100.00;101448.38;5069606;27;20382;-66
2023/07/13 08:59:44;;;;;;;12.85;4.90;;;;;;;18.23;100.00;101450.16;5069935;28;20499;-65
2023/07/13 09:02:31;;;;;;;10.10;4.78;;;;;;;18.32;100.00;101454.06;5067289;28;20033;-64
2023/07/13 09:05:02;;;;;;;10.07;4.57;;;;;;;18.52;100.00;101450.63;5049602;28;20035;-67
2023/07/13 09:07:37;;;;;;;11.05;4.78;;;;;;;18.61;100.00;101453.72;5047843;28;20029;-66
2023/07/13 09:10:15;;;;;;;10.80;4.55;;;;;;;18.64;100.00;101446.88;5049645;28;20104;-66
2023/07/13 09:12:48;;;;;;;10.27;4.13;;;;;;;18.71;95.21;101451.03;5049715;28;20033;-66
2023/07/13 09:15:34;;;;;;;11.73;4.57;;;;;;;18.78;98.64;101448.91;5049537;28;20101;-65
2023/07/13 09:18:28;;;;;;;11.65;4.43;;;;;;;18.81;100.00;101450.28;5054480;28;20032;-65
2023/07/13 09:21:03;;;;;;;12.85;4.68;;;;;;;18.77;98.84;101460.94;5067056;28;20515;-67
2023/07/13 09:23:30;;;;;;;10.57;4.03;;;;;;;18.79;95.77;101452.47;5066483;28;20515;-65
2023/07/13 09:26:15;;;;;;;8.48;4.03;;;;;;;18.92;96.15;101442.97;5055840;28;20400;-66
2023/07/13 09:28:43;;;;;;;12.75;4.07;;;;;;;18.89;92.40;101449.81;5055497;28;20032;-65
2023/07/13 09:31:23;;;;;;;12.07;4.28;;;;;;;18.95;90.32;101446.00;5060874;28;20037;-64
2023/07/13 09:33:50;;;;;;;13.77;4.10;;;;;;;19.09;93.48;101446.31;5048606;28;20083;-65
2023/07/13 09:36:30;;;;;;;8.73;3.80;;;;;;;19.20;92.65;101446.38;5048843;28;20036;-66
2023/07/13 09:39:12;;;;;;;12.55;4.35;;;;;;;19.25;91.43;101447.22;5068032;28;20071;-70
2023/07/13 09:41:54;;;;;;;9.57;3.80;;;;;;;19.24;84.60;101445.56;5068851;28;20103;-70
2023/07/13 09:44:50;;;;;;;11.38;4.22;;;;;;;19.23;83.46;101448.56;5068776;28;20025;-66
2023/07/13 09:47:23;;;;;;;9.55;3.78;;;;;;;19.23;78.24;101449.38;5068706;28;20484;-65
2023/07/13 09:49:55;;;;;;;10.57;3.95;;;;;;;19.28;80.12;101449.44;5067537;28;20074;-65
2023/07/13 09:52:20;;;;;;;12.95;4.07;;;;;;;19.31;77.74;101448.06;5054921;28;20484;-66
2023/07/13 09:54:55;;;;;;;14.93;3.92;;;;;;;19.31;80.96;101456.31;5048011;28;20119;-66
2023/07/13 09:57:24;;;;;;;7.88;3.20;;;;;;;19.30;76.59;101451.91;5047403;28;20033;-66
2023/07/13 09:59:51;;;;;;;9.77;3.33;;;;;;;19.32;77.62;101451.63;5048789;28;20052;-66
2023/07/13 10:02:35;;;;;;;9.52;3.10;;;;;;;19.37;77.27;101457.13;5064360;28;20498;-65
2023/07/13 10:05:07;;;;;;;10.05;3.33;;;;;;;19.36;73.69;101452.75;5068493;28;20036;-66
2023/07/13 10:07:39;;;;;;;11.38;3.30;;;;;;;19.40;74.64;101459.31;5060507;28;20476;-66
2023/07/13 10:10:19;;;;;;;8.75;3.20;;;;;;;19.40;74.55;101457.44;5048885;28;20052;-67
2023/07/13 10:12:46;;;;;;;7.57;2.90;;;;;;;19.48;70.18;101448.66;5055304;28;20036;-66
2023/07/13 10:15:23;;;;;;;8.50;3.30;;;;;;;19.69;73.59;101450.63;5054864;28;20025;-66
2023/07/13 10:17:50;;;;;;;7.72;2.83;;;;;;;19.79;67.73;101450.66;5055410;28;20037;-67
2023/07/13 10:20:16;;;;;;;5.35;2.40;;;;;;;19.77;66.33;101455.59;5054863;28;20075;-67
2023/07/13 10:22:54;;;;;;;10.70;2.45;;;;;;;20.00;68.84;101451.50;5054837;28;20025;-66
2023/07/13 10:25:44;;;;;;;8.95;2.50;;;;;;;20.15;69.86;101457.00;5034645;28;20033;-67
2023/07/13 10:28:25;;;;;;;10.23;3.00;;;;;;;20.26;67.38;101463.34;5033533;28;20035;-68
2023/07/13 10:30:53;;;;;;;8.70;2.80;;;;;;;20.23;64.83;101452.06;5043066;28;20075;-67
2023/07/13 10:33:20;;;;;;;9.10;2.78;;;;;;;20.19;65.58;101454.56;5053198;28;20025;-67
2023/07/13 10:35:50;;;;;;;12.90;2.83;;;;;;;20.08;64.50;101466.63;5053315;28;20040;-66
2023/07/13 10:38:23;;;;;;;9.85;2.75;;;;;;;20.00;67.96;101466.09;5044900;28;20528;-67
2023/07/13 10:40:58;;;;;;;8.43;3.10;;;;;;;19.89;73.57;101466.34;5034780;28;20052;-66
2023/07/13 10:43:32;;;;;;;7.07;2.53;;;;;;;19.73;74.71;101471.78;5050732;28;20548;-66
2023/07/13 10:46:00;;;;;;;10.48;3.10;;;;;;;19.56;76.83;101491.22;5053309;28;20033;-67
2023/07/13 10:48:26;;;;;;;7.95;3.55;;;;;;;19.25;82.41;101487.56;5038013;28;20535;-66
2023/07/13 10:50:53;;;;;;;7.60;4.07;;;;;;;18.95;100.00;101494.53;5052819;28;20075;-65
2023/07/13 10:53:29;;;;;;;8.75;4.35;;;;;;;18.83;100.00;101491.16;5045247;28;20056;-66
2023/07/13 10:56:08;;;;;;;8.55;3.72;;;;;;;18.75;100.00;101495.19;5046191;28;20045;-67
2023/07/13 10:58:33;;;;;;;9.45;4.57;;;;;;;18.74;100.00;101488.09;5043949;28;20033;-65
2023/07/13 11:01:17;;;;;;;7.90;3.95;;;;;;;18.72;100.00;101487.50;5043546;28;20041;-66
2023/07/13 11:03:43;;;;;;;10.60;4.22;;;;;;;18.74;100.00;101494.38;5039890;28;20033;-67
2023/07/13 11:06:12;;;;;;;8.13;4.00;;;;;;;18.99;100.00;101489.34;5052494;28;20043;-68
2023/07/13 11:08:47;;;;;;;9.70;4.57;;;;;;;19.24;100.00;101481.22;5034336;28;20030;-68
2023/07/13 11:11:27;;;;;;;11.40;4.45;;;;;;;19.51;100.00;101474.75;5040800;28;20467;-66
2023/07/13 11:13:52;;;;;;;10.52;4.45;;;;;;;19.67;85.57;101481.09;5045779;28;20037;-68
2023/07/13 11:16:34;;;;;;;8.57;4.28;;;;;;;19.75;96.06;101475.09;5053726;28;20480;-66
2023/07/13 11:19:02;;;;;;;10.13;4.60;;;;;;;19.95;85.33;101484.47;5052747;28;20446;-67
2023/07/13 11:21:30;;;;;;;12.32;4.22;;;;;;;20.05;79.37;101472.66;5052466;28;20038;-66
2023/07/13 11:24:05;;;;;;;9.27;4.20;;;;;;;20.27;79.98;101475.97;5041840;28;20037;-66
2023/07/13 11:26:51;;;;;;;10.38;4.50;;;;;;;20.56;76.67;101483.63;5040966;28;20159;-66
2023/07/13 11:29:17;;;;;;;8.98;3.95;;;;;;;20.86;73.54;101476.47;5044213;28;20044;-66
2023/07/13 11:31:43;;;;;;;16.05;4.82;;;;;;;20.89;68.97;101478.66;5054017;28;20029;-70
2023/07/13 11:34:15;;;;;;;11.20;4.25;;;;;;;20.85;67.95;101483.09;5053706;28;20346;-67
2023/07/13 11:36:44;;;;;;;7.53;4.20;;;;;;;20.75;66.63;101486.69;5053489;28;20531;-67
2023/07/13 11:39:12;;;;;;;8.43;3.67;;;;;;;20.83;64.20;101479.78;5039958;28;20517;-67
2023/07/13 11:41:57;;;;;;;12.15;4.30;;;;;;;21.15;66.56;101473.91;5052792;28;20476;-67
2023/07/13 11:44:25;;;;;;;8.52;3.53;;;;;;;21.25;63.02;101476.59;5042344;28;20025;-69
2023/07/13 11:46:52;;;;;;;10.65;3.42;;;;;;;21.33;64.03;101486.22;5038679;28;20037;-69
2023/07/13 11:49:19;;;;;;;9.43;3.20;;;;;;;21.18;59.96;101481.59;5033283;28;20029;-65
2023/07/13 11:51:45;;;;;;;8.88;3.17;;;;;;;21.04;61.30;101478.59;5033095;28;20431;-68
2023/07/13 11:54:30;;;;;;;10.15;3.60;;;;;;;20.94;62.30;101475.91;5032470;28;20044;-68
2023/07/13 11:57:00;;;;;;;9.30;3.75;;;;;;;20.77;62.06;101481.72;5031562;28;20073;-69
2023/07/13 11:59:26;;;;;;;9.93;3.75;;;;;;;20.71;62.40;101480.06;5033083;28;20032;-67
2023/07/13 12:01:54;;;;;;;10.77;4.05;;;;;;;20.73;62.76;101477.91;5038252;28;20044;-67
2023/07/13 12:04:25;;;;;;;7.55;3.15;;;;;;;21.00;61.21;101485.78;5033057;28;20533;-67
2023/07/13 12:07:17;;;;;;;8.25;3.47;;;;;;;21.27;62.19;101487.31;5042813;28;20029;-66
2023/07/13 12:09:43;;;;;;;8.32;3.22;;;;;;;21.47;59.67;101471.81;5033222;28;20045;-67
2023/07/13 12:12:14;;;;;;;16.05;3.70;;;;;;;21.53;58.41;101474.31;5032789;28;20029;-67
2023/07/13 12:14:40;;;;;;;9.25;3.42;;;;;;;21.53;57.20;101474.31;5032330;28;20025;-70
2023/07/13 12:17:31;;;;;;;9.88;3.22;;;;;;;21.60;59.72;101479.50;5035570;28;20040;-67
2023/07/13 12:19:57;;;;;;;;;;;;;;;21.68;59.31;101481.66;5046750;28;20044;-67
2023/07/13 12:22:23;;;;;;;6.72;3.22;;;;;;;21.57;55.96;101480.91;5052355;28;19939;-67
2023/07/13 12:24:49;;;;;;;8.68;3.20;;;;;;;21.54;57.52;101472.38;5052745;28;20368;-69
2023/07/13 12:27:26;;;;;;;10.93;3.58;;;;;;;21.58;58.05;101479.78;5051438;28;20583;-67
2023/07/13 12:29:58;;;;;;;8.70;3.30;;;;;;;21.80;57.49;101483.22;5052508;28;20036;-69
2023/07/13 12:32:25;;;;;;;10.50;3.10;;;;;;;21.86;56.97;101471.06;5049658;28;20024;-68
2023/07/13 12:35:14;;;;;;;7.50;3.40;;;;;;;21.76;56.28;101486.56;5045187;28;20025;-67
2023/07/13 12:37:44;;;;;;;5.28;2.75;;;;;;;21.70;52.91;101487.69;5052160;28;20045;-67
2023/07/13 12:40:19;;;;;;;6.10;2.85;;;;;;;21.59;53.11;101494.38;5052596;28;20032;-67
2023/07/13 12:42:48;;;;;;;9.05;3.10;;;;;;;21.49;52.35;101491.66;5052863;28;20100;-68
2023/07/13 12:45:26;;;;;;;7.18;2.90;;;;;;;21.53;54.49;101490.84;5052522;28;20036;-67
2023/07/13 12:48:12;;;;;;;9.27;3.03;;;;;;;21.32;58.07;101501.09;5050822;28;20459;-68
2023/07/13 12:50:42;;;;;;;11.85;3.53;;;;;;;21.10;60.14;101500.63;5052572;28;20120;-68
2023/07/13 12:53:14;;;;;;;10.55;2.58;;;;;;;20.92;62.83;101500.09;5044401;28;20032;-67
2023/07/13 12:56:02;;;;;;;8.63;2.78;;;;;;;20.81;63.33;101501.25;5050904;28;20102;-66
2023/07/13 12:58:41;;;;;;;9.27;2.90;;;;;;;20.66;62.37;101505.66;5052466;28;20112;-67
2023/07/13 13:01:09;;;;;;;6.65;2.80;;;;;;;20.58;62.33;101508.09;5050054;28;20021;-66
2023/07/13 13:03:38;;;;;;;5.93;2.65;;;;;;;20.53;62.31;101506.19;5049563;28;20071;-68
2023/07/13 13:06:07;;;;;;;8.02;2.85;;;;;;;20.54;61.44;101513.34;5034062;28;20428;-67
2023/07/13 13:08:33;;;;;;;8.65;2.70;;;;;;;20.53;60.15;101512.53;5032500;28;20052;-68
2023/07/13 13:10:59;;;;;;;8.52;2.67;;;;;;;20.45;60.48;101510.31;5032375;28;20453;-64
2023/07/13 13:13:25;;;;;;;8.43;3.15;;;;;;;20.41;60.26;101513.91;5033171;28;20092;-64
2023/07/13 13:15:52;;;;;;;7.63;2.72;;;;;;;20.44;60.95;101522.44;5032251;28;20462;-66
2023/07/13 13:18:19;;;;;;;7.50;2.90;;;;;;;20.39;60.77;101521.59;5032204;28;20080;-65
2023/07/13 13:20:46;;;;;;;6.43;2.72;;;;;;;20.50;61.99;101520.50;5031475;28;20487;-65
2023/07/13 13:23:17;;;;;;;6.13;2.70;;;;;;;20.64;60.19;101526.28;5041629;28;20087;-66
2023/07/13 13:25:43;;;;;;;;;;;;;;;20.82;60.11;101522.13;5033219;28;20037;-65
2023/07/13 13:28:26;;;;;;;7.13;2.92;;;;;;;20.77;59.67;101528.47;5032660;28;19909;-65
2023/07/13 13:30:52;;;;;;;7.00;3.08;;;;;;;20.78;60.61;101526.56;5035155;28;20166;-64
2023/07/13 13:33:21;;;;;;;14.93;3.08;;;;;;;20.66;59.15;101530.41;5032181;28;20030;-64
2023/07/13 13:35:47;;;;;;;6.95;2.75;;;;;;;20.57;60.59;101532.03;5041828;28;20037;-65
2023/07/13 13:38:15;;;;;;;6.30;2.63;;;;;;;20.51;61.62;101542.22;5035659;28;20117;-65
2023/07/13 13:40:42;;;;;;;8.25;2.75;;;;;;;20.44;61.79;101547.19;5031867;28;20032;-65
2023/07/13 13:43:19;;;;;;;8.10;2.67;;;;;;;20.32;61.60;101544.69;5034377;28;20026;-65
2023/07/13 13:45:45;;;;;;;6.82;2.95;;;;;;;20.24;62.07;101544.41;5035584;28;20483;-64
2023/07/13 13:48:17;;;;;;;6.90;2.97;;;;;;;20.22;63.28;101543.88;5039047;28;20472;-64
2023/07/13 13:50:43;;;;;;;6.45;2.70;;;;;;;20.20;63.91;101546.88;5053476;28;20279;-65
2023/07/13 13:53:13;;;;;;;7.15;2.90;;;;;;;20.17;62.93;101548.25;5055647;28;20021;-64
2023/07/13 13:55:41;;;;;;;6.15;2.55;;;;;;;20.17;62.77;101531.75;5051774;28;20080;-65
2023/07/13 13:58:09;;;;;;;4.95;2.75;;;;;;;20.17;62.46;101545.50;5052712;28;20104;-64
2023/07/13 14:00:34;;;;;;;20.52;7.90;;;;;;;20.19;64.11;101542.47;5052681;28;20496;-65
2023/07/13 14:03:00;;;;;;;7.05;2.92;;;;;;;20.24;64.57;101538.91;5055498;28;20021;-64
2023/07/13 14:05:26;;;;;;;4.65;2.53;;;;;;;20.22;61.33;101539.19;5055182;28;20353;-64
2023/07/13 14:07:52;;;;;;;5.78;2.65;;;;;;;20.31;62.62;101545.78;5055066;28;20043;-64
2023/07/13 14:10:19;;;;;;;7.00;2.80;;;;;;;20.30;62.86;101546.06;5056493;28;20028;-64
2023/07/13 14:12:48;;;;;;;7.75;2.75;;;;;;;20.36;63.01;101548.53;5055018;28;20060;-65
2023/07/13 14:15:31;;;;;;;7.88;2.90;;;;;;;20.42;62.94;101545.78;5047550;28;20163;-64
2023/07/13 14:17:57;;;;;;;9.93;3.08;;;;;;;20.45;62.03;101548.00;5035308;28;20485;-64
2023/07/13 14:20:24;;;;;;;5.78;2.70;;;;;;;20.46;62.80;101544.97;5035201;28;20033;-64
2023/07/13 14:22:52;;;;;;;3.95;2.53;;;;;;;20.57;62.85;101551.28;5035145;28;20045;-64
2023/07/13 14:25:19;;;;;;;5.30;2.47;;;;;;;20.68;62.29;101554.88;5035107;28;20171;-64
2023/07/13 14:27:46;;;;;;;4.95;2.40;;;;;;;20.76;60.33;101550.75;5035115;28;20060;-64
2023/07/13 14:30:17;;;;;;;4.13;2.38;;;;;;;20.96;60.77;101547.97;5034773;28;20452;-65
2023/07/13 14:32:42;;;;;;;6.15;2.58;;;;;;;21.20;60.18;101547.38;5047905;28;20159;-65
2023/07/13 14:35:12;;;;;;;5.15;2.33;;;;;;;21.09;60.25;101556.75;5043342;28;20040;-66
2023/07/13 14:37:38;;;;;;;6.55;2.53;;;;;;;21.08;60.48;101538.63;5041942;28;20040;-64
2023/07/13 14:40:12;;;;;;;4.07;2.45;;;;;;;21.15;61.40;101544.63;5034931;28;20060;-64
2023/07/13 14:42:38;;;;;;;6.68;2.58;;;;;;;21.23;62.47;101541.31;5034662;28;20021;-65
2023/07/13 14:45:04;;;;;;;5.28;2.50;;;;;;;21.30;63.98;101539.06;5034494;28;20431;-65
2023/07/13 14:47:29;;;;;;;5.68;3.05;;;;;;;21.19;64.14;101542.97;5034147;28;20037;-65
2023/07/13 14:49:55;;;;;;;6.57;2.97;;;;;;;21.05;65.14;101540.00;5033825;28;20110;-65
2023/07/13 14:52:23;;;;;;;7.82;3.17;;;;;;;20.86;66.23;101537.84;5037469;28;20361;-67
2023/07/13 14:54:49;;;;;;;12.88;2.80;;;;;;;20.86;65.94;101535.09;5053908;28;20040;-66
2023/07/13 14:57:19;;;;;;;4.50;2.70;;;;;;;20.76;65.14;101542.50;5048262;28;20033;-66
2023/07/13 14:59:45;;;;;;;9.32;3.05;;;;;;;20.66;65.18;101544.16;5043999;28;20036;-66
2023/07/13 15:02:15;;;;;;;5.93;2.42;;;;;;;20.53;66.31;101550.19;5041791;28;20037;-65
2023/07/13 15:04:41;;;;;;;4.38;2.83;;;;;;;20.49;67.06;101543.59;5044922;28;20426;-65
2023/07/13 15:07:10;;;;;;;5.35;2.35;;;;;;;20.49;67.84;101546.34;5046936;28;20120;-65
2023/07/13 15:09:35;;;;;;;5.35;2.38;;;;;;;20.47;69.20;101543.03;5038598;28;20029;-66
2023/07/13 15:12:01;;;;;;;8.07;2.50;;;;;;;20.45;70.33;101537.81;5034828;28;20036;-66
2023/07/13 15:14:27;;;;;;;5.45;2.38;;;;;;;20.45;71.40;101537.00;5042718;28;20104;-65
2023/07/13 15:16:55;;;;;;;5.15;2.40;;;;;;;20.44;71.74;101533.44;5039959;28;20029;-67
2023/07/13 15:19:21;;;;;;;6.78;2.88;;;;;;;20.43;73.60;101531.78;5059586;28;20039;-66
2023/07/13 15:21:48;;;;;;;7.15;2.92;;;;;;;20.36;71.62;101534.78;5052317;28;20411;-66
2023/07/13 15:24:13;;;;;;;6.75;2.78;;;;;;;20.35;72.21;101541.41;5043994;28;20417;-67
2023/07/13 15:26:39;;;;;;;5.68;2.53;;;;;;;20.33;73.96;101540.81;5042417;28;20048;-67
2023/07/13 15:29:05;;;;;;;5.97;3.00;;;;;;;20.32;75.70;101539.19;5033676;28;20495;-70
2023/07/13 15:31:32;;;;;;;5.80;2.92;;;;;;;20.35;77.44;101541.41;5033193;28;20424;-68
2023/07/13 15:33:59;;;;;;;5.82;2.78;;;;;;;20.28;77.20;101535.34;5033819;28;20041;-67
2023/07/13 15:36:26;;;;;;;7.13;2.65;;;;;;;20.35;81.96;101541.41;5033585;28;20424;-68
2023/07/13 15:38:53;;;;;;;6.95;2.90;;;;;;;20.70;76.06;101539.75;5033259;28;20052;-68
2023/07/13 15:41:20;;;;;;;5.38;2.83;;;;;;;20.86;72.71;101531.47;5037122;28;20029;-65
2023/07/13 15:43:46;;;;;;;7.47;2.90;;;;;;;20.99;72.71;101538.34;5052852;28;20083;-66
2023/07/13 15:46:12;;;;;;;5.63;2.90;;;;;;;20.97;70.81;101535.88;5051457;28;20083;-65
2023/07/13 15:48:37;;;;;;;4.88;2.50;;;;;;;20.89;73.13;101530.94;5053013;28;20428;-69
2023/07/13 15:51:05;;;;;;;4.15;2.45;;;;;;;21.02;66.40;101533.09;5053454;28;20041;-65
2023/07/13 15:53:38;;;;;;;3.55;2.15;;;;;;;21.27;63.13;101539.63;5053209;28;20115;-68
2023/07/13 15:56:19;;;;;;;3.83;2.10;;;;;;;21.75;60.95;101528.97;5045616;28;20087;-67
2023/07/13 15:58:44;;;;;;;;;;;;;;;21.94;62.97;101528.34;5048157;28;20075;-67
2023/07/13 16:01:11;;;;;;;3.13;2.00;;;;;;;21.52;58.28;101526.91;5032034;28;20307;-67
2023/07/13 16:03:36;;;;;;;6.63;2.05;;;;;;;21.38;59.29;101524.72;5037483;28;20024;-67
2023/07/13 16:06:02;;;;;;;3.15;2.00;;;;;;;21.23;60.17;101530.31;5052642;28;20459;-67
